Time;durP1;ratioP1;P1;durP2;ratioP2;P2;SDS_P1;SDS_P2;PMS_P1;PMS_P2;Temp;Humidity;BMP_temperature;BMP_pressure;BME280_temperature;BME280_humidity;BME280_pressure;Samples;Min_cycle;Max_cycle;Signal;HPM_P1;HPM_P2
2022/01/04 00:00:38;;;;;;;1.33;1.23;;;10.40;1.00;;;;;;5051801;28;20455;-66
2022/01/04 00:03:03;;;;;;;1.13;0.83;;;10.40;1.00;;;;;;5048878;28;20189;-65
2022/01/04 00:05:29;;;;;;;2.07;1.10;;;10.50;1.00;;;;;;5052186;28;20195;-66
2022/01/04 00:07:55;;;;;;;2.37;1.20;;;;;;;;;;5061484;28;20192;-65
2022/01/04 00:10:23;;;;;;;1.80;1.07;;;;;;;;;;5048251;28;20967;-64
2022/01/04 00:15:33;;;;;;;1.77;1.20;;;10.30;1.00;;;;;;5052721;28;20525;-65
2022/01/04 00:17:59;;;;;;;1.27;0.80;;;;;;;;;;5056412;28;20990;-65
2022/01/04 00:20:25;;;;;;;1.43;0.80;;;10.20;1.00;;;;;;5048524;28;20459;-66
2022/01/04 00:22:51;;;;;;;1.23;0.93;;;10.10;1.00;;;;;;5061038;28;20450;-66
2022/01/04 00:25:16;;;;;;;1.00;0.90;;;10.10;1.00;;;;;;5049847;28;20595;-65
2022/01/04 00:27:42;;;;;;;2.03;1.00;;;10.10;1.00;;;;;;5059932;28;20220;-64
2022/01/04 00:30:08;;;;;;;2.43;0.93;;;10.20;1.00;;;;;;5055119;28;20187;-65
2022/01/04 00:32:34;;;;;;;0.93;0.90;;;;;;;;;;5046291;28;20203;-65
2022/01/04 00:35:00;;;;;;;1.07;0.80;;;10.20;1.00;;;;;;5058160;28;20543;-65
2022/01/04 00:37:26;;;;;;;1.40;0.87;;;;;;;;;;5051084;28;20446;-65
2022/01/04 00:39:52;;;;;;;0.80;0.80;;;10.20;1.00;;;;;;5051855;28;20193;-65
2022/01/04 00:42:17;;;;;;;1.80;1.10;;;10.10;1.00;;;;;;5046463;28;20417;-65
2022/01/04 00:44:43;;;;;;;0.87;0.70;;;10.10;1.00;;;;;;5057505;28;20184;-65
2022/01/04 00:47:09;;;;;;;1.30;0.87;;;10.00;1.00;;;;;;5056585;28;20668;-65
2022/01/04 00:49:36;;;;;;;1.27;0.90;;;10.10;1.00;;;;;;5059168;28;20188;-65
2022/01/04 00:52:01;;;;;;;2.03;1.30;;;10.10;1.00;;;;;;5060660;28;20454;-67
2022/01/04 00:54:27;;;;;;;1.00;0.80;;;10.10;1.00;;;;;;5054748;28;20729;-66
2022/01/04 00:56:52;;;;;;;1.23;0.97;;;10.10;1.00;;;;;;5050414;28;20224;-67
2022/01/04 00:59:18;;;;;;;1.03;0.90;;;10.10;1.00;;;;;;5053358;28;20192;-67
2022/01/04 01:01:45;;;;;;;1.50;1.17;;;10.10;1.00;;;;;;5047866;28;20527;-65
2022/01/04 01:04:11;;;;;;;0.70;0.60;;;10.30;1.00;;;;;;5050899;28;20465;-66
2022/01/04 01:06:37;;;;;;;3.17;1.07;;;10.30;1.00;;;;;;5055831;28;20938;-66
2022/01/04 01:09:04;;;;;;;2.20;0.60;;;10.20;1.00;;;;;;5050013;28;20716;-67
2022/01/04 01:11:30;;;;;;;1.73;0.90;;;10.20;1.00;;;;;;5049779;28;20443;-66
2022/01/04 01:13:55;;;;;;;0.83;0.80;;;10.20;1.00;;;;;;5053822;28;20432;-66
2022/01/04 01:16:21;;;;;;;3.50;1.00;;;;;;;;;;5065765;28;20660;-67
2022/01/04 01:18:47;;;;;;;1.83;1.00;;;;;;;;;;5057285;28;20259;-65
2022/01/04 01:21:13;;;;;;;0.80;0.80;;;10.50;1.00;;;;;;5049844;28;20563;-63
2022/01/04 01:23:39;;;;;;;1.57;0.70;;;10.50;1.00;;;;;;5048826;28;20447;-65
2022/01/04 01:26:06;;;;;;;2.03;1.00;;;10.60;1.00;;;;;;5054746;28;20191;-64
2022/01/04 01:28:34;;;;;;;0.60;0.60;;;10.60;1.00;;;;;;5051224;28;20892;-65
2022/01/04 01:30:59;;;;;;;1.20;0.80;;;10.60;1.00;;;;;;5047990;28;20455;-65
2022/01/04 01:33:27;;;;;;;0.73;0.63;;;;;;;;;;5049992;28;20454;-64
2022/01/04 01:35:53;;;;;;;1.00;0.80;;;;;;;;;;5048820;28;20215;-63
2022/01/04 01:38:19;;;;;;;0.90;0.70;;;10.60;1.00;;;;;;5050124;28;20428;-65
2022/01/04 01:40:46;;;;;;;1.20;1.00;;;10.60;1.00;;;;;;5049526;28;20439;-64
2022/01/04 01:43:12;;;;;;;1.67;0.90;;;10.70;1.00;;;;;;5052740;28;20456;-65
2022/01/04 01:45:38;;;;;;;1.33;0.80;;;10.70;1.00;;;;;;5048873;28;20509;-64
2022/01/04 01:48:05;;;;;;;0.80;0.60;;;10.70;1.00;;;;;;5049479;28;20451;-64
2022/01/04 01:50:31;;;;;;;1.33;0.80;;;10.70;1.00;;;;;;5053511;28;20798;-64
2022/01/04 01:52:57;;;;;;;1.17;0.70;;;;;;;;;;5053588;28;20446;-65
2022/01/04 01:55:24;;;;;;;1.33;0.80;;;10.80;1.00;;;;;;5055335;28;20573;-64
2022/01/04 01:57:50;;;;;;;2.43;0.60;;;10.90;1.00;;;;;;5049091;28;20528;-65
2022/01/04 02:00:19;;;;;;;2.20;0.80;;;10.90;1.00;;;;;;5055570;28;20497;-67
2022/01/04 02:02:45;;;;;;;0.80;0.80;;;11.20;1.00;;;;;;5057334;28;20824;-67
2022/01/04 02:05:11;;;;;;;2.20;0.90;;;11.20;1.00;;;;;;5057786;28;20485;-68
2022/01/04 02:07:39;;;;;;;0.90;0.60;;;11.30;1.00;;;;;;5057729;28;20217;-65
2022/01/04 02:10:07;;;;;;;1.27;0.80;;;11.40;1.00;;;;;;5056864;28;20279;-65
2022/01/04 02:12:36;;;;;;;1.57;1.00;;;11.40;1.00;;;;;;5058412;28;20499;-66
2022/01/04 02:15:03;;;;;;;1.33;0.70;;;11.30;1.00;;;;;;5054274;28;20453;-67
2022/01/04 02:17:29;;;;;;;3.20;1.20;;;11.30;1.00;;;;;;5046703;28;20438;-66
2022/01/04 02:19:56;;;;;;;1.03;0.97;;;11.20;1.00;;;;;;5051552;28;21040;-65
2022/01/04 02:22:22;;;;;;;1.50;1.10;;;11.30;1.00;;;;;;5046141;28;20191;-67
2022/01/04 02:24:48;;;;;;;0.77;0.77;;;;;;;;;;5060466;28;20541;-66
2022/01/04 02:27:15;;;;;;;1.37;0.60;;;11.40;1.00;;;;;;5053074;28;20252;-63
2022/01/04 02:29:41;;;;;;;1.80;1.03;;;11.50;1.00;;;;;;5057170;28;20504;-65
2022/01/04 02:32:07;;;;;;;1.00;0.83;;;11.40;1.00;;;;;;5049952;28;20782;-68
2022/01/04 02:34:32;;;;;;;1.67;0.90;;;11.40;1.00;;;;;;5055391;28;20482;-65
2022/01/04 02:36:59;;;;;;;1.30;0.60;;;11.50;1.00;;;;;;5048184;28;20470;-63
2022/01/04 02:39:24;;;;;;;1.77;0.77;;;11.40;1.00;;;;;;5059467;28;20188;-63
2022/01/04 02:41:50;;;;;;;3.03;1.00;;;11.40;1.00;;;;;;5058984;28;20456;-66
2022/01/04 02:44:15;;;;;;;1.27;0.80;;;11.40;1.00;;;;;;5052516;28;20450;-66
2022/01/04 02:46:41;;;;;;;1.50;1.20;;;11.40;1.00;;;;;;5052082;28;20223;-65
2022/01/04 02:49:07;;;;;;;3.13;1.50;;;11.30;1.00;;;;;;5050995;28;20192;-64
2022/01/04 02:51:32;;;;;;;5.40;1.50;;;11.20;1.00;;;;;;5046677;28;20197;-65
2022/01/04 02:53:58;;;;;;;2.33;1.00;;;11.20;1.00;;;;;;5043033;28;20283;-65
2022/01/04 02:56:24;;;;;;;0.90;0.80;;;;;;;;;;5042140;28;20212;-65
2022/01/04 02:58:50;;;;;;;2.70;1.17;;;;;;;;;;5044638;28;20189;-65
2022/01/04 03:01:15;;;;;;;1.63;1.10;;;11.30;1.00;;;;;;5044627;28;20533;-66
2022/01/04 03:03:41;;;;;;;2.13;1.00;;;11.30;1.00;;;;;;5043839;28;20425;-64
2022/01/04 03:06:07;;;;;;;2.10;1.20;;;11.30;1.00;;;;;;5044636;28;20222;-64
2022/01/04 03:08:32;;;;;;;1.70;1.00;;;11.20;1.00;;;;;;5043407;28;20199;-64
2022/01/04 03:10:58;;;;;;;1.80;1.00;;;;;;;;;;5047514;28;20184;-66
2022/01/04 03:13:24;;;;;;;1.77;1.07;;;11.10;1.00;;;;;;5048309;28;20287;-65
2022/01/04 03:15:49;;;;;;;1.10;0.63;;;11.10;1.00;;;;;;5048305;28;20441;-66
2022/01/04 03:18:15;;;;;;;1.40;1.10;;;11.10;1.00;;;;;;5054355;28;20188;-65
2022/01/04 03:20:41;;;;;;;0.80;0.60;;;11.10;1.00;;;;;;5053719;28;20220;-66
2022/01/04 03:23:10;;;;;;;1.47;0.87;;;11.10;1.00;;;;;;5053366;28;20208;-65
2022/01/04 03:25:36;;;;;;;3.23;0.90;;;11.10;1.00;;;;;;5055522;28;20790;-67
2022/01/04 03:28:03;;;;;;;0.80;0.73;;;11.20;1.00;;;;;;5060708;28;20956;-67
2022/01/04 03:30:28;;;;;;;0.97;0.83;;;11.30;1.00;;;;;;5052301;28;20437;-65
2022/01/04 03:32:54;;;;;;;1.10;0.80;;;11.20;1.00;;;;;;5052847;28;20872;-65
2022/01/04 03:35:21;;;;;;;2.63;1.40;;;11.10;1.00;;;;;;5058719;28;20262;-65
2022/01/04 03:37:47;;;;;;;2.00;1.13;;;11.00;1.00;;;;;;5052378;28;20199;-65
2022/01/04 03:40:13;;;;;;;1.77;1.03;;;11.00;1.00;;;;;;5051311;28;20902;-64
2022/01/04 03:42:38;;;;;;;2.60;1.07;;;;;;;;;;5055672;28;20235;-65
2022/01/04 03:45:05;;;;;;;1.40;0.50;;;11.00;1.00;;;;;;5048897;28;20558;-65
2022/01/04 03:47:31;;;;;;;1.67;0.63;;;10.90;1.00;;;;;;5056428;28;20476;-64
2022/01/04 03:49:56;;;;;;;1.07;0.50;;;10.90;1.00;;;;;;5056235;28;20819;-65
2022/01/04 03:52:22;;;;;;;0.70;0.70;;;10.90;1.00;;;;;;5055013;28;20199;-64
2022/01/04 03:54:48;;;;;;;0.57;0.57;;;;;;;;;;5055263;28;20269;-66
2022/01/04 03:57:13;;;;;;;1.93;0.80;;;10.90;1.00;;;;;;5055730;28;20670;-64
2022/01/04 03:59:39;;;;;;;1.73;0.97;;;10.80;1.00;;;;;;5059810;28;20463;-65
2022/01/04 04:02:05;;;;;;;1.33;0.80;;;10.80;1.00;;;;;;5047511;28;20196;-64
2022/01/04 04:04:30;;;;;;;0.83;0.70;;;10.70;1.00;;;;;;5048115;28;20192;-64
2022/01/04 04:06:56;;;;;;;0.90;0.70;;;;;;;;;;5053299;28;20223;-66
2022/01/04 04:09:22;;;;;;;1.23;1.00;;;;;;;;;;5055906;28;20188;-63
2022/01/04 04:11:48;;;;;;;2.60;0.80;;;10.60;1.00;;;;;;5056791;28;20506;-62
2022/01/04 04:14:13;;;;;;;3.73;0.90;;;10.60;1.00;;;;;;5060403;28;20445;-65
2022/01/04 04:16:39;;;;;;;1.90;1.10;;;10.60;1.00;;;;;;5055993;28;20254;-64
2022/01/04 04:19:05;;;;;;;1.73;1.10;;;10.60;1.00;;;;;;5053644;28;20543;-64
2022/01/04 04:21:30;;;;;;;1.60;0.90;;;10.50;1.00;;;;;;5054123;28;20191;-65
2022/01/04 04:23:56;;;;;;;3.20;1.10;;;10.50;1.00;;;;;;5050449;28;20446;-64
2022/01/04 04:26:21;;;;;;;8.23;1.40;;;10.50;1.00;;;;;;5053736;28;20196;-65
2022/01/04 04:28:47;;;;;;;0.97;0.77;;;10.50;5.40;;;;;;5057722;28;20596;-64
2022/01/04 04:31:13;;;;;;;0.53;0.53;;;;;;;;;;5056502;28;20189;-64
2022/01/04 04:33:38;;;;;;;1.10;1.00;;;10.50;11.80;;;;;;5062039;28;20275;-65
2022/01/04 04:36:04;;;;;;;1.00;0.90;;;10.50;12.90;;;;;;5054095;28;20473;-64
2022/01/04 04:38:30;;;;;;;1.13;0.97;;;;;;;;;;5049711;28;20242;-64
2022/01/04 04:40:56;;;;;;;0.80;0.80;;;10.60;11.50;;;;;;5056444;28;20184;-65
2022/01/04 04:43:22;;;;;;;0.90;0.63;;;;;;;;;;5051553;28;20587;-66
2022/01/04 04:45:47;;;;;;;0.70;0.70;;;10.60;13.00;;;;;;5059012;28;20195;-63
2022/01/04 04:48:13;;;;;;;0.87;0.60;;;10.60;11.50;;;;;;5048937;28;20550;-64
2022/01/04 04:50:39;;;;;;;1.80;0.90;;;10.60;11.50;;;;;;5059102;28;20270;-65
2022/01/04 04:53:04;;;;;;;1.03;0.70;;;10.60;13.90;;;;;;5053592;28;20192;-64
2022/01/04 04:55:30;;;;;;;1.03;0.93;;;10.50;16.40;;;;;;5050994;28;20323;-64
2022/01/04 04:57:56;;;;;;;0.90;0.70;;;10.50;20.50;;;;;;5062369;28;20184;-64
2022/01/04 05:00:22;;;;;;;1.47;1.23;;;10.60;20.60;;;;;;5059513;28;20450;-65
2022/01/04 05:02:47;;;;;;;0.70;0.70;;;10.50;22.20;;;;;;5052343;28;20507;-66
2022/01/04 05:05:13;;;;;;;1.80;0.80;;;;;;;;;;5054965;28;20185;-63
2022/01/04 05:07:39;;;;;;;0.60;0.60;;;10.60;20.50;;;;;;5057883;28;20227;-64
2022/01/04 05:10:07;;;;;;;1.33;1.07;;;10.60;20.50;;;;;;5059622;28;20449;-64
2022/01/04 05:12:33;;;;;;;1.50;0.67;;;10.60;20.40;;;;;;5052188;28;20550;-66
2022/01/04 05:14:58;;;;;;;1.43;0.70;;;10.50;20.50;;;;;;5051799;28;20545;-68
2022/01/04 05:17:24;;;;;;;0.60;0.60;;;;;;;;;;5054809;28;20820;-66
2022/01/04 05:19:50;;;;;;;0.60;0.60;;;;;;;;;;5050779;28;20276;-67
2022/01/04 05:22:16;;;;;;;0.87;0.83;;;10.60;20.60;;;;;;5056599;28;20465;-65
2022/01/04 05:24:41;;;;;;;1.80;0.77;;;10.60;20.60;;;;;;5056123;28;20414;-64
2022/01/04 05:27:08;;;;;;;1.10;1.00;;;;;;;;;;5062165;28;20464;-65
2022/01/04 05:29:33;;;;;;;2.90;1.00;;;10.50;22.30;;;;;;5056913;28;20184;-65
2022/01/04 05:31:59;;;;;;;3.13;1.47;;;10.50;20.50;;;;;;5064490;28;20442;-65
2022/01/04 05:34:25;;;;;;;1.03;0.90;;;10.50;23.40;;;;;;5056684;28;20223;-65
2022/01/04 05:36:51;;;;;;;2.30;1.00;;;10.50;23.40;;;;;;5058630;28;20291;-66
2022/01/04 05:39:17;;;;;;;1.43;1.20;;;10.50;20.50;;;;;;5058319;28;20476;-66
2022/01/04 05:41:43;;;;;;;5.37;1.73;;;10.50;20.80;;;;;;5055942;28;20238;-65
2022/01/04 05:44:09;;;;;;;1.37;1.13;;;;;;;;;;5056279;28;20443;-66
2022/01/04 05:46:34;;;;;;;1.77;1.10;;;10.40;22.90;;;;;;5057661;28;20212;-66
2022/01/04 05:49:00;;;;;;;1.50;0.93;;;10.40;22.20;;;;;;5051926;28;20442;-67
2022/01/04 05:51:26;;;;;;;3.17;1.40;;;;;;;;;;5056403;28;20238;-67
2022/01/04 05:53:52;;;;;;;1.40;1.30;;;;;;;;;;5055725;28;20192;-66
2022/01/04 05:56:18;;;;;;;1.57;1.47;;;;;;;;;;5054966;28;20842;-66
2022/01/04 05:58:43;;;;;;;2.53;2.27;;;10.50;23.20;;;;;;5056773;28;20454;-67
2022/01/04 06:01:09;;;;;;;1.50;1.40;;;10.40;24.80;;;;;;5061323;28;20446;-65
2022/01/04 06:03:35;;;;;;;4.07;1.97;;;;;;;;;;5056667;28;20263;-65
2022/01/04 06:06:00;;;;;;;3.60;1.90;;;10.40;24.80;;;;;;5055600;28;20185;-67
2022/01/04 06:08:34;;;;;;;2.67;2.10;;;;;;;;;;5055552;28;20504;-67
2022/01/04 06:11:00;;;;;;;3.37;2.60;;;10.50;26.60;;;;;;5053174;28;20192;-66
2022/01/04 06:16:10;;;;;;;5.07;2.70;;;10.50;24.00;;;;;;5056955;28;20447;-68
2022/01/04 06:18:37;;;;;;;4.30;2.70;;;;;;;;;;5054967;28;20455;-66
2022/01/04 06:21:03;;;;;;;3.30;2.83;;;10.40;29.20;;;;;;5059428;28;20215;-67
2022/01/04 06:23:29;;;;;;;3.93;2.80;;;;;;;;;;5052552;28;20445;-67
2022/01/04 06:25:54;;;;;;;3.60;2.93;;;10.40;45.00;;;;;;5057680;28;20421;-66
2022/01/04 06:28:21;;;;;;;4.23;3.60;;;7.60;37.10;;;;;;5058790;28;20498;-67
2022/01/04 06:30:49;;;;;;;3.80;2.97;;;10.30;44.80;;;;;;5055737;28;20233;-68
2022/01/04 06:33:21;;;;;;;5.67;3.40;;;10.40;45.00;;;;;;5058569;28;20581;-68
2022/01/04 06:35:48;;;;;;;5.17;3.33;;;10.30;43.30;;;;;;5053685;28;20466;-68
2022/01/04 06:38:14;;;;;;;3.87;3.40;;;;;;;;;;5059566;28;20917;-67
2022/01/04 06:40:39;;;;;;;5.90;3.80;;;10.30;48.40;;;;;;5056687;28;20438;-68
2022/01/04 06:43:05;;;;;;;3.67;3.30;;;;;;;;;;5063229;28;20441;-67
2022/01/04 06:45:31;;;;;;;5.13;3.47;;;10.20;56.20;;;;;;5065782;28;20646;-66
2022/01/04 06:47:57;;;;;;;4.53;3.30;;;;;;;;;;5056383;28;20427;-65
2022/01/04 06:50:23;;;;;;;4.73;4.27;;;10.30;62.10;;;;;;5059461;28;20608;-67
2022/01/04 06:52:50;;;;;;;4.33;3.60;;;10.30;63.40;;;;;;5054714;28;20421;-68
2022/01/04 06:55:16;;;;;;;4.50;4.03;;;10.30;67.20;;;;;;5055232;28;20464;-67
2022/01/04 06:57:43;;;;;;;4.70;3.97;;;10.30;63.40;;;;;;5060487;28;20879;-67
2022/01/04 07:00:10;;;;;;;5.93;3.50;;;10.30;60.70;;;;;;5053123;28;21088;-66
2022/01/04 07:02:36;;;;;;;5.40;4.10;;;;;;;;;;5061249;28;20439;-68
2022/01/04 07:05:02;;;;;;;4.80;3.77;;;10.20;74.90;;;;;;5059956;28;20454;-67
2022/01/04 07:07:28;;;;;;;4.83;3.70;;;;;;;;;;5060641;28;20862;-66
2022/01/04 07:09:54;;;;;;;5.53;4.37;;;;;;;;;;5057122;28;20484;-68
2022/01/04 07:12:20;;;;;;;5.27;4.13;;;10.30;77.70;;;;;;5058876;28;20451;-70
2022/01/04 07:14:45;;;;;;;4.43;4.00;;;10.40;71.80;;;;;;5058144;28;20443;-66
2022/01/04 07:17:11;;;;;;;3.23;2.90;;;10.30;67.50;;;;;;5058893;28;20208;-69
2022/01/04 07:19:39;;;;;;;7.40;4.60;;;;;;;;;;5064080;28;20642;-69
2022/01/04 07:22:05;;;;;;;6.63;4.00;;;10.40;68.20;;;;;;5059213;28;20567;-63
2022/01/04 07:24:30;;;;;;;4.50;3.50;;;10.40;67.90;;;;;;5048843;28;20500;-65
2022/01/04 07:26:56;;;;;;;5.43;3.00;;;;;;;;;;5048300;28;20413;-64
2022/01/04 07:29:22;;;;;;;4.30;3.30;;;;;;;;;;5048286;28;20224;-65
2022/01/04 07:31:48;;;;;;;5.37;4.00;;;;;;;;;;5048842;28;20450;-64
2022/01/04 07:34:16;;;;;;;4.57;3.20;;;;;;;;;;5046795;28;20443;-64
2022/01/04 07:36:42;;;;;;;6.43;3.33;;;;;;;;;;5048966;28;20469;-64
2022/01/04 07:39:07;;;;;;;5.20;4.27;;;10.40;63.80;;;;;;5048954;28;20418;-64
2022/01/04 07:41:33;;;;;;;4.93;3.40;;;10.40;72.40;;;;;;5048932;28;20413;-63
2022/01/04 07:43:59;;;;;;;3.67;3.00;;;10.30;70.30;;;;;;5048581;28;20653;-64
2022/01/04 07:46:25;;;;;;;4.77;3.17;;;10.40;68.60;;;;;;5048306;28;20194;-65
2022/01/04 07:48:51;;;;;;;5.63;3.93;;;10.50;62.50;;;;;;5049210;28;20326;-63
2022/01/04 07:51:17;;;;;;;4.37;3.90;;;10.40;58.20;;;;;;5049973;28;20475;-63
2022/01/04 07:53:43;;;;;;;5.77;3.33;;;10.40;60.30;;;;;;5048959;28;20999;-63
2022/01/04 07:56:08;;;;;;;4.37;2.57;;;10.40;55.40;;;;;;5048279;28;20470;-64
2022/01/04 07:58:34;;;;;;;7.13;3.10;;;;;;;;;;5048605;28;20200;-63
2022/01/04 08:01:00;;;;;;;3.63;3.30;;;;;;;;;;5049749;28;20188;-64
2022/01/04 08:03:26;;;;;;;4.90;3.70;;;10.40;62.80;;;;;;5049709;28;20862;-63
2022/01/04 08:05:52;;;;;;;3.70;3.03;;;;;;;;;;5051957;28;20478;-64
2022/01/04 08:08:18;;;;;;;5.00;4.27;;;;;;;;;;5051647;28;20947;-65
2022/01/04 08:10:47;;;;;;;4.87;4.40;;;10.40;62.00;;;;;;5052181;28;20501;-64
2022/01/04 08:13:13;;;;;;;3.63;3.30;;;;;;;;;;5051241;28;20438;-63
2022/01/04 08:15:39;;;;;;;3.40;3.10;;;10.50;63.80;;;;;;5051955;28;20478;-65
2022/01/04 08:18:05;;;;;;;6.30;3.40;;;10.60;54.50;;;;;;5052559;28;20434;-63
2022/01/04 08:20:30;;;;;;;6.93;3.63;;;10.60;55.40;;;;;;5051922;28;20191;-64
2022/01/04 08:22:57;;;;;;;3.43;3.13;;;10.60;57.30;;;;;;5050594;28;20734;-64
2022/01/04 08:25:23;;;;;;;4.30;3.20;;;;;;;;;;5052020;28;20654;-64
2022/01/04 08:27:48;;;;;;;6.27;3.03;;;10.70;52.90;;;;;;5052430;28;20478;-63
2022/01/04 08:30:15;;;;;;;4.53;3.37;;;;;;;;;;5051805;28;20447;-64
2022/01/04 08:32:42;;;;;;;3.70;3.30;;;10.60;54.40;;;;;;5051924;28;20177;-64
2022/01/04 08:35:08;;;;;;;3.30;2.90;;;10.70;57.60;;;;;;5055285;28;20450;-63
2022/01/04 08:37:34;;;;;;;3.47;3.17;;;10.80;50.20;;;;;;5051726;28;20588;-64
2022/01/04 08:40:00;;;;;;;3.77;3.37;;;;;;;;;;5052039;28;20474;-64
2022/01/04 08:42:25;;;;;;;3.93;3.37;;;10.70;45.60;;;;;;5051368;28;20564;-63
2022/01/04 08:44:52;;;;;;;5.20;3.10;;;;;;;;;;5051834;28;20425;-65
2022/01/04 08:47:18;;;;;;;4.10;2.80;;;;;;;;;;5050754;28;20196;-64
2022/01/04 08:49:44;;;;;;;3.27;2.97;;;;;;;;;;5050670;28;20520;-64
2022/01/04 08:52:10;;;;;;;4.27;2.87;;;;;;;;;;5052180;28;20545;-63
2022/01/04 08:54:37;;;;;;;3.33;2.50;;;10.70;47.00;;;;;;5051379;28;20425;-64
2022/01/04 08:57:04;;;;;;;3.57;2.70;;;10.70;51.80;;;;;;5051408;28;20520;-63
2022/01/04 08:59:32;;;;;;;3.07;2.77;;;;;;;;;;5056058;28;20899;-63
2022/01/04 09:01:57;;;;;;;3.23;2.67;;;10.90;45.30;;;;;;5052752;28;20532;-64
2022/01/04 09:04:23;;;;;;;2.97;2.67;;;;;;;;;;5051963;28;20467;-65
2022/01/04 09:06:49;;;;;;;3.70;3.23;;;11.00;44.40;;;;;;5053323;28;20211;-65
2022/01/04 09:09:15;;;;;;;2.70;2.50;;;11.10;38.40;;;;;;5052783;28;20874;-65
2022/01/04 09:11:44;;;;;;;3.47;2.60;;;11.00;34.80;;;;;;5062465;28;20422;-65
2022/01/04 09:19:26;;;;;;;1.70;1.57;;;11.00;27.00;;;;;;5049034;28;20234;-66
2022/01/04 09:21:53;;;;;;;1.80;1.70;;;11.00;27.20;;;;;;5050552;28;20436;-66
2022/01/04 09:24:19;;;;;;;2.53;2.10;;;11.00;27.20;;;;;;5050388;28;20450;-64
2022/01/04 09:26:45;;;;;;;2.33;2.13;;;11.10;27.20;;;;;;5050642;28;20442;-63
2022/01/04 09:29:11;;;;;;;2.63;2.10;;;11.10;25.70;;;;;;5049926;28;20478;-64
2022/01/04 09:31:37;;;;;;;2.67;2.00;;;11.10;26.60;;;;;;5051235;28;20509;-64
2022/01/04 09:34:03;;;;;;;2.67;2.30;;;11.00;26.90;;;;;;5053233;28;20187;-64
2022/01/04 09:36:33;;;;;;;3.00;2.60;;;11.00;30.30;;;;;;5053730;28;20217;-65
2022/01/04 09:38:59;;;;;;;4.17;2.60;;;11.00;34.70;;;;;;5050060;28;20773;-65
2022/01/04 09:41:26;;;;;;;3.17;2.63;;;11.00;35.50;;;;;;5051693;28;21223;-64
2022/01/04 09:43:52;;;;;;;3.50;2.17;;;11.00;30.70;;;;;;5056043;28;20447;-64
2022/01/04 09:46:19;;;;;;;3.00;2.70;;;11.00;25.20;;;;;;5048848;28;20520;-65
2022/01/04 09:48:45;;;;;;;6.73;5.40;;;11.00;29.50;;;;;;5050772;28;20496;-66
2022/01/04 09:51:12;;;;;;;5.80;3.93;;;10.90;35.70;;;;;;5049708;28;20409;-66
2022/01/04 09:53:38;;;;;;;5.53;3.70;;;10.90;42.30;;;;;;5050718;28;20646;-64
2022/01/04 09:56:04;;;;;;;5.70;4.77;;;;;;;;;;5049250;28;20439;-64
2022/01/04 09:58:30;;;;;;;4.70;3.80;;;10.90;45.30;;;;;;5050796;28;20570;-64
2022/01/04 10:00:56;;;;;;;4.10;3.20;;;11.00;40.10;;;;;;5049040;28;20443;-64
2022/01/04 10:03:30;;;;;;;4.30;3.70;;;11.00;33.60;;;;;;5050546;28;20619;-64
2022/01/04 10:06:09;;;;;;;20.17;11.70;;;11.00;34.30;;;;;;5050509;28;20446;-65
2022/01/04 10:08:50;;;;;;;18.83;13.10;;;11.00;33.60;;;;;;5050759;28;20517;-64
2022/01/04 10:11:16;;;;;;;5.03;4.50;;;;;;;;;;5049720;28;20438;-65
2022/01/04 10:13:42;;;;;;;5.37;3.97;;;;;;;;;;5051080;28;20437;-65
2022/01/04 10:16:16;;;;;;;4.30;3.80;;;11.00;40.00;;;;;;5053275;28;20463;-64
2022/01/04 10:18:47;;;;;;;3.40;3.10;;;11.10;40.40;;;;;;5050691;28;20409;-66
2022/01/04 10:21:14;;;;;;;4.30;3.90;;;11.10;35.10;;;;;;5048685;28;20470;-64
2022/01/04 10:23:49;;;;;;;5.43;3.50;;;11.20;40.20;;;;;;5050288;28;21009;-65
2022/01/04 10:26:16;;;;;;;3.73;3.40;;;11.20;38.30;;;;;;5047692;28;20438;-66
2022/01/04 10:28:44;;;;;;;4.57;3.60;;;11.30;36.90;;;;;;5050196;28;20496;-65
2022/01/04 10:31:16;;;;;;;4.60;3.60;;;11.40;29.70;;;;;;5049482;28;20451;-65
2022/01/04 10:33:42;;;;;;;5.30;4.10;;;11.30;30.00;;;;;;5050020;28;20423;-65
2022/01/04 10:36:12;;;;;;;4.57;3.77;;;11.40;28.70;;;;;;5049745;28;20543;-64
2022/01/04 10:38:44;;;;;;;4.40;3.40;;;11.50;25.50;;;;;;5051635;28;20445;-64
2022/01/04 10:41:15;;;;;;;4.07;3.60;;;11.40;25.90;;;;;;5049715;28;20422;-68
2022/01/04 10:44:03;;;;;;;4.60;4.00;;;11.50;25.30;;;;;;5058754;28;20412;-65
2022/01/04 10:46:41;;;;;;;4.13;3.73;;;11.60;22.10;;;;;;5049142;28;21032;-68
2022/01/04 10:49:16;;;;;;;4.70;3.97;;;11.60;20.90;;;;;;5049562;28;20438;-66
2022/01/04 10:51:43;;;;;;;4.50;3.30;;;11.60;17.10;;;;;;5052557;28;20437;-66
2022/01/04 10:54:09;;;;;;;5.00;4.50;;;;;;;;;;5049646;28;20455;-65
2022/01/04 10:56:38;;;;;;;5.67;4.10;;;11.70;14.40;;;;;;5049473;28;21000;-65
2022/01/04 10:59:09;;;;;;;5.33;4.50;;;11.60;12.10;;;;;;5049124;28;20440;-65
2022/01/04 11:01:44;;;;;;;6.13;4.03;;;11.30;20.60;;;;;;5053285;28;20426;-65
2022/01/04 11:04:16;;;;;;;6.17;4.70;;;11.30;22.50;;;;;;5049684;28;20972;-64
2022/01/04 11:06:42;;;;;;;7.00;5.20;;;11.20;26.00;;;;;;5047951;28;20439;-67
2022/01/04 11:09:09;;;;;;;5.97;4.90;;;11.30;32.00;;;;;;5049164;28;20478;-66
2022/01/04 11:11:35;;;;;;;5.57;4.40;;;11.30;32.30;;;;;;5053308;28;20424;-65
2022/01/04 11:14:02;;;;;;;6.10;4.87;;;11.30;29.70;;;;;;5049274;28;20508;-65
2022/01/04 11:16:29;;;;;;;4.83;4.10;;;11.30;25.30;;;;;;5048704;28;20964;-64
2022/01/04 11:18:56;;;;;;;4.47;3.97;;;10.90;33.60;;;;;;5053315;28;20784;-65
2022/01/04 11:21:25;;;;;;;5.80;5.23;;;11.00;45.50;;;;;;5051335;28;21043;-66
2022/01/04 11:23:51;;;;;;;5.90;5.30;;;11.10;37.70;;;;;;5048520;28;20926;-65
2022/01/04 11:26:18;;;;;;;6.63;5.93;;;11.00;45.40;;;;;;5049024;28;20521;-66
2022/01/04 11:28:49;;;;;;;7.80;5.43;;;11.00;55.60;;;;;;5048880;28;20795;-66
2022/01/04 11:31:34;;;;;;;7.20;5.10;;;10.90;61.20;;;;;;5051064;28;20462;-65
2022/01/04 11:34:06;;;;;;;4.67;4.23;;;11.00;45.40;;;;;;5048115;28;20417;-66
2022/01/04 11:36:37;;;;;;;4.97;4.47;;;11.00;53.10;;;;;;5045116;28;20537;-65
2022/01/04 11:39:26;;;;;;;5.10;4.60;;;11.00;50.60;;;;;;5053763;28;20446;-66
2022/01/04 11:41:51;;;;;;;7.30;4.73;;;11.00;50.60;;;;;;5051547;28;20441;-65
2022/01/04 11:44:22;;;;;;;7.70;4.40;;;11.00;55.30;;;;;;5053018;28;20438;-65
2022/01/04 11:47:06;;;;;;;6.97;5.50;;;11.00;55.70;;;;;;5053195;28;20183;-66
2022/01/04 11:49:36;;;;;;;4.73;4.33;;;11.00;55.90;;;;;;5052877;28;20445;-64
2022/01/04 11:52:05;;;;;;;8.70;4.87;;;11.00;55.20;;;;;;5052177;28;20580;-66
2022/01/04 11:54:32;;;;;;;7.23;5.77;;;10.90;53.50;;;;;;5051394;28;20529;-65
2022/01/04 11:57:09;;;;;;;5.30;4.80;;;10.90;66.50;;;;;;5051392;28;20989;-64
2022/01/04 11:59:40;;;;;;;6.50;5.43;;;10.90;75.60;;;;;;5052828;28;20442;-65
2022/01/04 12:02:24;;;;;;;6.30;5.10;;;11.00;69.80;;;;;;5051063;28;20439;-65
2022/01/04 12:04:53;;;;;;;6.63;5.27;;;11.10;70.00;;;;;;5050839;28;20435;-65
2022/01/04 12:07:51;;;;;;;7.10;5.73;;;11.10;67.20;;;;;;5052716;28;20413;-65
2022/01/04 12:10:22;;;;;;;7.73;5.20;;;11.20;54.20;;;;;;5051270;28;20405;-66
2022/01/04 12:13:03;;;;;;;6.97;5.57;;;11.30;55.90;;;;;;5049667;28;20525;-67
2022/01/04 12:15:36;;;;;;;4.67;3.63;;;11.30;45.00;;;;;;5051865;28;20438;-65
2022/01/04 12:18:54;;;;;;;3.63;3.33;;;11.20;29.60;;;;;;5053072;28;20510;-64
2022/01/04 12:21:21;;;;;;;4.47;3.33;;;;;;;;;;5038954;28;20479;-64
2022/01/04 12:23:48;;;;;;;3.03;2.37;;;11.10;9.90;;;;;;5052156;28;20405;-65
2022/01/04 12:26:16;;;;;;;2.03;1.83;;;11.10;11.80;;;;;;5050749;28;20530;-65
2022/01/04 12:28:43;;;;;;;1.53;1.10;;;11.10;5.90;;;;;;5050799;28;20558;-65
2022/01/04 12:31:18;;;;;;;1.17;1.07;;;11.00;1.00;;;;;;5053189;28;20948;-65
2022/01/04 12:33:55;;;;;;;1.43;1.30;;;11.00;1.00;;;;;;5052926;28;20417;-65
2022/01/04 12:36:30;;;;;;;1.53;1.20;;;10.70;5.90;;;;;;5052794;28;20608;-65
2022/01/04 12:39:04;;;;;;;2.00;1.40;;;10.70;10.10;;;;;;5047681;28;20420;-66
2022/01/04 12:41:30;;;;;;;4.10;0.87;;;10.80;12.30;;;;;;5052180;28;20577;-64
2022/01/04 12:43:57;;;;;;;0.90;0.90;;;;;;;;;;5055246;28;20452;-64
2022/01/04 12:46:36;;;;;;;2.97;1.57;;;10.70;16.00;;;;;;5053716;28;20446;-64
2022/01/04 12:49:10;;;;;;;1.73;1.40;;;10.80;20.20;;;;;;5051360;28;20425;-64
2022/01/04 12:51:38;;;;;;;0.80;0.80;;;10.80;9.10;;;;;;5051868;28;20552;-67
2022/01/04 12:54:25;;;;;;;2.50;1.30;;;10.80;8.90;;;;;;5051796;28;20447;-64
2022/01/04 12:56:57;;;;;;;2.50;1.60;;;10.80;12.70;;;;;;5049029;28;20457;-63
2022/01/04 12:59:23;;;;;;;1.97;1.60;;;;;;;;;;5051637;28;20418;-66
2022/01/04 13:01:53;;;;;;;2.00;1.80;;;10.90;17.40;;;;;;5050300;28;20432;-62
2022/01/04 13:04:42;;;;;;;3.70;2.23;;;10.70;18.40;;;;;;5058686;28;20910;-62
2022/01/04 13:07:21;;;;;;;2.53;2.33;;;10.60;34.40;;;;;;5050599;28;20442;-62
2022/01/04 13:09:56;;;;;;;3.43;2.07;;;10.70;32.50;;;;;;5049361;28;20453;-62
2022/01/04 13:12:34;;;;;;;1.83;1.73;;;10.60;29.00;;;;;;5057980;28;20567;-64
2022/01/04 13:15:00;;;;;;;2.17;1.90;;;10.60;32.10;;;;;;5049674;28;20451;-65
2022/01/04 13:17:27;;;;;;;4.47;2.20;;;10.60;34.40;;;;;;5050848;28;20441;-64
2022/01/04 13:19:55;;;;;;;2.20;1.80;;;10.60;34.40;;;;;;5053874;28;20461;-64
2022/01/04 13:22:23;;;;;;;2.33;1.73;;;10.50;31.90;;;;;;5051254;28;20761;-65
2022/01/04 13:24:49;;;;;;;2.20;1.97;;;;;;;;;;5050947;28;20435;-65